UAL2613 KORD-KMEM
Flight info
| Callsign | UAL2613 |
|---|---|
| Flight time | 1h 17m |
| Altitude | 34000 |
| Route | CMSKY CARYN CYBIL PXV BLUZZ5 |
| Aircraft | A320/M-SDE3FGHIRWY/LB1 |
Departure
| Time | 2026-05-04 22:45 |
|---|---|
| Airport | Chicago O'Hare International Airport (KORD) |
Arrival
| Time | 2026-05-05 00:02 |
|---|---|
| Airport | Memphis International Airport (KMEM) |
| Time | Latitude | Longitude | Altitude | Speed | Heading |
|---|---|---|---|---|---|
| 2026-05-04 22:19 | 41.97931 | -87.90730 | 683 ft | 0 kts | 99° |
| 2026-05-04 22:30 | 41.97931 | -87.90731 | 682 ft | 2 kts | 99° |
| 2026-05-04 22:30 | 41.97936 | -87.90763 | 682 ft | 4 kts | 109° |
| 2026-05-04 22:30 | 41.97949 | -87.90793 | 682 ft | 4 kts | 145° |
| 2026-05-04 22:30 | 41.97969 | -87.90799 | 682 ft | 4 kts | 189° |
| 2026-05-04 22:31 | 41.97982 | -87.90796 | 682 ft | 0 kts | 189° |
| 2026-05-04 22:35 | 41.97970 | -87.90799 | 682 ft | 4 kts | 189° |
| 2026-05-04 22:35 | 41.97933 | -87.90807 | 682 ft | 7 kts | 189° |
| 2026-05-04 22:35 | 41.97869 | -87.90822 | 682 ft | 11 kts | 189° |
| 2026-05-04 22:35 | 41.97781 | -87.90842 | 682 ft | 15 kts | 190° |
| 2026-05-04 22:36 | 41.97672 | -87.90870 | 682 ft | 15 kts | 191° |
| 2026-05-04 22:36 | 41.97595 | -87.90888 | 682 ft | 11 kts | 192° |
| 2026-05-04 22:36 | 41.97549 | -87.90943 | 682 ft | 8 kts | 246° |
| 2026-05-04 22:36 | 41.97527 | -87.91019 | 682 ft | 9 kts | 247° |
| 2026-05-04 22:37 | 41.97470 | -87.91034 | 682 ft | 11 kts | 154° |
| 2026-05-04 22:37 | 41.97402 | -87.90964 | 682 ft | 14 kts | 138° |
| 2026-05-04 22:37 | 41.97318 | -87.90861 | 682 ft | 18 kts | 134° |
| 2026-05-04 22:37 | 41.97237 | -87.90726 | 682 ft | 17 kts | 115° |
| 2026-05-04 22:38 | 41.97213 | -87.90551 | 682 ft | 21 kts | 94° |
| 2026-05-04 22:38 | 41.97205 | -87.90378 | 682 ft | 16 kts | 92° |
| 2026-05-04 22:38 | 41.97204 | -87.90212 | 682 ft | 17 kts | 90° |
| 2026-05-04 22:38 | 41.97203 | -87.90068 | 682 ft | 16 kts | 91° |
| 2026-05-04 22:39 | 41.97208 | -87.89919 | 682 ft | 15 kts | 86° |
| 2026-05-04 22:39 | 41.97235 | -87.89838 | 682 ft | 15 kts | 58° |
| 2026-05-04 22:39 | 41.97259 | -87.89770 | 682 ft | 5 kts | 82° |
| 2026-05-04 22:39 | 41.97228 | -87.89694 | 682 ft | 8 kts | 133° |
| 2026-05-04 22:40 | 41.97226 | -87.89646 | 682 ft | 9 kts | 81° |
| 2026-05-04 22:40 | 41.97222 | -87.89545 | 682 ft | 13 kts | 112° |
| 2026-05-04 22:40 | 41.97194 | -87.89413 | 682 ft | 17 kts | 92° |
| 2026-05-04 22:40 | 41.97194 | -87.89266 | 682 ft | 15 kts | 91° |
| 2026-05-04 22:41 | 41.97190 | -87.89104 | 682 ft | 19 kts | 90° |
| 2026-05-04 22:41 | 41.97194 | -87.88908 | 682 ft | 23 kts | 88° |
| 2026-05-04 22:41 | 41.97196 | -87.88711 | 682 ft | 13 kts | 91° |
| 2026-05-04 22:41 | 41.97193 | -87.88596 | 682 ft | 14 kts | 93° |
| 2026-05-04 22:42 | 41.97194 | -87.88447 | 682 ft | 15 kts | 89° |
| 2026-05-04 22:42 | 41.97193 | -87.88342 | 682 ft | 12 kts | 90° |
| 2026-05-04 22:42 | 41.97194 | -87.88220 | 682 ft | 14 kts | 91° |
| 2026-05-04 22:42 | 41.97193 | -87.88106 | 682 ft | 10 kts | 91° |
| 2026-05-04 22:43 | 41.97148 | -87.88031 | 682 ft | 13 kts | 169° |
| 2026-05-04 22:43 | 41.97046 | -87.88030 | 682 ft | 14 kts | 182° |
| 2026-05-04 22:43 | 41.96971 | -87.88035 | 682 ft | 10 kts | 184° |
| 2026-05-04 22:43 | 41.96908 | -87.88079 | 682 ft | 12 kts | 221° |
| 2026-05-04 22:44 | 41.96843 | -87.88157 | 682 ft | 16 kts | 222° |
| 2026-05-04 22:44 | 41.96632 | -87.88410 | 682 ft | 73 kts | 222° |
| 2026-05-04 22:44 | 41.96098 | -87.89040 | 683 ft | 129 kts | 223° |
| 2026-05-04 22:44 | 41.95326 | -87.89907 | 943 ft | 148 kts | 220° |
| 2026-05-04 22:45 | 41.94508 | -87.90729 | 1496 ft | 141 kts | 220° |
| 2026-05-04 22:45 | 41.92440 | -87.91162 | 2148 ft | 172 kts | 177° |
| 2026-05-04 22:45 | 41.91235 | -87.90892 | 2465 ft | 179 kts | 175° |
| 2026-05-04 22:46 | 41.89986 | -87.90602 | 2810 ft | 188 kts | 176° |
| 2026-05-04 22:46 | 41.88658 | -87.90300 | 3155 ft | 199 kts | 175° |
| 2026-05-04 22:46 | 41.87227 | -87.89984 | 3455 ft | 220 kts | 175° |
| 2026-05-04 22:46 | 41.85633 | -87.89648 | 3734 ft | 243 kts | 175° |
| 2026-05-04 22:47 | 41.83922 | -87.89301 | 4125 ft | 261 kts | 176° |
| 2026-05-04 22:47 | 41.82094 | -87.88935 | 4647 ft | 268 kts | 176° |
| 2026-05-04 22:47 | 41.80256 | -87.88556 | 5300 ft | 269 kts | 175° |
| 2026-05-04 22:47 | 41.78391 | -87.88169 | 6039 ft | 272 kts | 176° |
| 2026-05-04 22:48 | 41.76518 | -87.87776 | 6762 ft | 274 kts | 176° |
| 2026-05-04 22:48 | 41.74619 | -87.87377 | 7417 ft | 278 kts | 176° |
| 2026-05-04 22:48 | 41.72698 | -87.86974 | 8062 ft | 281 kts | 176° |
| 2026-05-04 22:48 | 41.70771 | -87.86560 | 8831 ft | 280 kts | 175° |
| 2026-05-04 22:49 | 41.68836 | -87.86141 | 9508 ft | 284 kts | 176° |
| 2026-05-04 22:49 | 41.66873 | -87.85709 | 10241 ft | 291 kts | 176° |
| 2026-05-04 22:49 | 41.64821 | -87.85254 | 10671 ft | 305 kts | 177° |
| 2026-05-04 22:49 | 41.62686 | -87.85026 | 11017 ft | 312 kts | 184° |
| 2026-05-04 22:50 | 41.60507 | -87.85003 | 11415 ft | 321 kts | 186° |
| 2026-05-04 22:50 | 41.58230 | -87.85031 | 11764 ft | 332 kts | 186° |
| 2026-05-04 22:50 | 41.55878 | -87.85059 | 12141 ft | 340 kts | 186° |
| 2026-05-04 22:50 | 41.53498 | -87.85083 | 12607 ft | 343 kts | 186° |
| 2026-05-04 22:51 | 41.51103 | -87.85107 | 13067 ft | 343 kts | 186° |
| 2026-05-04 22:51 | 41.48744 | -87.85128 | 13739 ft | 335 kts | 186° |
| 2026-05-04 22:51 | 41.46379 | -87.85160 | 14141 ft | 347 kts | 187° |
| 2026-05-04 22:51 | 41.43923 | -87.85204 | 14372 ft | 359 kts | 186° |
| 2026-05-04 22:52 | 41.41394 | -87.85235 | 14815 ft | 366 kts | 186° |
| 2026-05-04 22:52 | 41.38876 | -87.85256 | 15324 ft | 368 kts | 186° |
| 2026-05-04 22:52 | 41.36312 | -87.85277 | 15937 ft | 367 kts | 187° |
| 2026-05-04 22:52 | 41.33760 | -87.85300 | 16545 ft | 366 kts | 187° |
| 2026-05-04 22:53 | 41.31191 | -87.85328 | 16983 ft | 370 kts | 187° |
| 2026-05-04 22:53 | 41.28601 | -87.85360 | 17401 ft | 374 kts | 187° |
| 2026-05-04 22:53 | 41.25976 | -87.85392 | 17838 ft | 378 kts | 187° |
| 2026-05-04 22:53 | 41.23339 | -87.85422 | 18272 ft | 381 kts | 187° |
| 2026-05-04 22:54 | 41.20675 | -87.85451 | 18709 ft | 384 kts | 187° |
| 2026-05-04 22:54 | 41.17989 | -87.85480 | 19149 ft | 386 kts | 187° |
| 2026-05-04 22:54 | 41.15293 | -87.85510 | 19582 ft | 389 kts | 186° |
| 2026-05-04 22:54 | 41.12579 | -87.85540 | 20006 ft | 391 kts | 186° |
| 2026-05-04 22:55 | 41.09870 | -87.85571 | 20415 ft | 394 kts | 186° |
| 2026-05-04 22:55 | 41.07116 | -87.85602 | 20823 ft | 396 kts | 186° |
| 2026-05-04 22:55 | 41.04349 | -87.85632 | 21209 ft | 399 kts | 186° |
| 2026-05-04 22:55 | 41.01558 | -87.85662 | 21575 ft | 402 kts | 186° |
| 2026-05-04 22:56 | 40.98783 | -87.85696 | 21946 ft | 404 kts | 186° |
| 2026-05-04 22:56 | 40.95961 | -87.85730 | 22317 ft | 406 kts | 186° |
| 2026-05-04 22:56 | 40.93120 | -87.85760 | 22680 ft | 408 kts | 186° |
| 2026-05-04 22:56 | 40.90265 | -87.85790 | 23023 ft | 411 kts | 185° |
| 2026-05-04 22:57 | 40.87398 | -87.85821 | 23358 ft | 413 kts | 185° |
| 2026-05-04 22:57 | 40.84516 | -87.85854 | 23696 ft | 415 kts | 185° |
| 2026-05-04 22:57 | 40.81618 | -87.85887 | 24018 ft | 417 kts | 185° |
| 2026-05-04 22:57 | 40.78706 | -87.85919 | 24328 ft | 420 kts | 185° |
| 2026-05-04 22:58 | 40.75771 | -87.85952 | 24637 ft | 422 kts | 185° |
| 2026-05-04 22:58 | 40.72825 | -87.85983 | 24941 ft | 424 kts | 185° |
| 2026-05-04 22:58 | 40.69865 | -87.86014 | 25228 ft | 426 kts | 185° |
| 2026-05-04 22:58 | 40.66887 | -87.86046 | 25513 ft | 428 kts | 185° |
| 2026-05-04 22:59 | 40.63936 | -87.86078 | 25794 ft | 430 kts | 184° |
| 2026-05-04 22:59 | 40.60936 | -87.86113 | 26073 ft | 432 kts | 184° |
| 2026-05-04 22:59 | 40.57913 | -87.86147 | 26344 ft | 435 kts | 184° |
| 2026-05-04 22:59 | 40.54883 | -87.86179 | 26613 ft | 437 kts | 184° |
| 2026-05-04 23:00 | 40.51829 | -87.86213 | 26885 ft | 439 kts | 184° |
| 2026-05-04 23:00 | 40.48770 | -87.86248 | 27147 ft | 441 kts | 184° |
| 2026-05-04 23:00 | 40.45685 | -87.86281 | 27407 ft | 442 kts | 184° |
| 2026-05-04 23:00 | 40.42597 | -87.86315 | 27657 ft | 444 kts | 184° |
| 2026-05-04 23:01 | 40.39496 | -87.86350 | 27906 ft | 446 kts | 184° |
| 2026-05-04 23:01 | 40.36381 | -87.86385 | 28161 ft | 448 kts | 183° |
| 2026-05-04 23:01 | 40.33296 | -87.86417 | 28395 ft | 450 kts | 183° |
| 2026-05-04 23:01 | 40.30162 | -87.86378 | 28633 ft | 452 kts | 181° |
| 2026-05-04 23:02 | 40.26998 | -87.86252 | 28870 ft | 454 kts | 181° |
| 2026-05-04 23:02 | 40.23825 | -87.86103 | 29086 ft | 457 kts | 180° |
| 2026-05-04 23:02 | 40.20643 | -87.85948 | 29383 ft | 457 kts | 180° |
| 2026-05-04 23:02 | 40.17471 | -87.85799 | 29720 ft | 456 kts | 180° |
| 2026-05-04 23:03 | 40.14304 | -87.85661 | 30022 ft | 455 kts | 180° |
| 2026-05-04 23:03 | 40.11134 | -87.85527 | 30331 ft | 454 kts | 180° |
| 2026-05-04 23:03 | 40.07975 | -87.85391 | 30625 ft | 454 kts | 181° |
| 2026-05-04 23:03 | 40.04821 | -87.85253 | 30929 ft | 453 kts | 181° |
| 2026-05-04 23:04 | 40.01673 | -87.85113 | 31240 ft | 452 kts | 181° |
| 2026-05-04 23:04 | 39.98526 | -87.84975 | 31520 ft | 452 kts | 181° |
| 2026-05-04 23:04 | 39.95384 | -87.84837 | 31819 ft | 451 kts | 181° |
| 2026-05-04 23:04 | 39.92291 | -87.84703 | 32096 ft | 450 kts | 181° |
| 2026-05-04 23:05 | 39.89125 | -87.84563 | 32385 ft | 449 kts | 181° |
| 2026-05-04 23:05 | 39.86042 | -87.84428 | 32652 ft | 448 kts | 181° |
| 2026-05-04 23:05 | 39.82921 | -87.84291 | 32907 ft | 448 kts | 181° |
| 2026-05-04 23:05 | 39.79807 | -87.84156 | 33159 ft | 447 kts | 181° |
| 2026-05-04 23:06 | 39.76701 | -87.84024 | 33398 ft | 447 kts | 181° |
| 2026-05-04 23:06 | 39.73588 | -87.83890 | 33637 ft | 446 kts | 181° |
| 2026-05-04 23:06 | 39.67412 | -87.83617 | 33719 ft | 443 kts | 182° |
| 2026-05-04 23:07 | 39.61239 | -87.83351 | 33717 ft | 443 kts | 182° |
| 2026-05-04 23:07 | 39.55112 | -87.83087 | 33715 ft | 443 kts | 182° |
| 2026-05-04 23:08 | 39.48926 | -87.82822 | 33714 ft | 444 kts | 182° |
| 2026-05-04 23:08 | 39.42740 | -87.82553 | 33718 ft | 444 kts | 182° |
| 2026-05-04 23:09 | 39.36562 | -87.82287 | 33738 ft | 444 kts | 182° |
| 2026-05-04 23:09 | 39.30379 | -87.82022 | 33761 ft | 444 kts | 182° |
| 2026-05-04 23:10 | 39.24236 | -87.81757 | 33730 ft | 444 kts | 182° |
| 2026-05-04 23:10 | 39.18037 | -87.81491 | 33689 ft | 445 kts | 182° |
| 2026-05-04 23:11 | 39.11840 | -87.81230 | 33680 ft | 445 kts | 183° |
| 2026-05-04 23:11 | 39.05639 | -87.80961 | 33686 ft | 445 kts | 183° |
| 2026-05-04 23:12 | 38.99440 | -87.80698 | 33691 ft | 446 kts | 183° |
| 2026-05-04 23:12 | 38.93231 | -87.80434 | 33690 ft | 447 kts | 183° |
| 2026-05-04 23:13 | 38.87045 | -87.80175 | 33694 ft | 447 kts | 184° |
| 2026-05-04 23:13 | 38.80816 | -87.79908 | 33718 ft | 447 kts | 184° |
| 2026-05-04 23:14 | 38.74596 | -87.79646 | 33724 ft | 448 kts | 184° |
| 2026-05-04 23:14 | 38.68370 | -87.79385 | 33732 ft | 448 kts | 184° |
| 2026-05-04 23:15 | 38.62133 | -87.79121 | 33738 ft | 448 kts | 184° |
| 2026-05-04 23:15 | 38.55900 | -87.78856 | 33748 ft | 448 kts | 184° |
| 2026-05-04 23:16 | 38.49659 | -87.78595 | 33752 ft | 448 kts | 184° |
| 2026-05-04 23:16 | 38.43416 | -87.78336 | 33753 ft | 448 kts | 184° |
| 2026-05-04 23:17 | 38.37188 | -87.78070 | 33776 ft | 448 kts | 184° |
| 2026-05-04 23:17 | 38.30953 | -87.77813 | 33767 ft | 448 kts | 185° |
| 2026-05-04 23:18 | 38.24715 | -87.77555 | 33760 ft | 448 kts | 185° |
| 2026-05-04 23:18 | 38.18526 | -87.77293 | 33754 ft | 448 kts | 185° |
| 2026-05-04 23:19 | 38.12288 | -87.77035 | 33758 ft | 448 kts | 185° |
| 2026-05-04 23:19 | 38.06049 | -87.76777 | 33764 ft | 448 kts | 185° |
| 2026-05-04 23:20 | 37.99813 | -87.76518 | 33771 ft | 448 kts | 185° |
| 2026-05-04 23:20 | 37.93612 | -87.76584 | 33775 ft | 439 kts | 195° |
| 2026-05-04 23:21 | 37.90689 | -87.77465 | 33775 ft | 427 kts | 207° |
| 2026-05-04 23:21 | 37.87994 | -87.78961 | 33784 ft | 421 kts | 213° |
| 2026-05-04 23:21 | 37.82796 | -87.82369 | 33788 ft | 421 kts | 214° |
| 2026-05-04 23:22 | 37.77538 | -87.85677 | 33845 ft | 422 kts | 212° |
| 2026-05-04 23:22 | 37.72217 | -87.88846 | 33868 ft | 423 kts | 212° |
| 2026-05-04 23:23 | 37.67807 | -87.91528 | 33875 ft | 422 kts | 213° |
| 2026-05-04 23:23 | 37.62524 | -87.94776 | 33876 ft | 422 kts | 213° |
| 2026-05-04 23:24 | 37.57240 | -87.97987 | 33872 ft | 420 kts | 213° |
| 2026-05-04 23:24 | 37.51975 | -88.01181 | 33857 ft | 419 kts | 213° |
| 2026-05-04 23:25 | 37.46730 | -88.04367 | 33815 ft | 417 kts | 213° |
| 2026-05-04 23:25 | 37.41496 | -88.07537 | 33802 ft | 417 kts | 213° |
| 2026-05-04 23:26 | 37.36288 | -88.10687 | 33807 ft | 418 kts | 212° |
| 2026-05-04 23:26 | 37.31031 | -88.13862 | 33809 ft | 419 kts | 212° |
| 2026-05-04 23:27 | 37.25744 | -88.17051 | 33804 ft | 422 kts | 212° |
| 2026-05-04 23:27 | 37.20433 | -88.20246 | 33807 ft | 424 kts | 212° |
| 2026-05-04 23:28 | 37.15137 | -88.23428 | 33809 ft | 426 kts | 212° |
| 2026-05-04 23:28 | 37.09797 | -88.26633 | 33594 ft | 421 kts | 212° |
| 2026-05-04 23:29 | 37.07175 | -88.28199 | 33337 ft | 412 kts | 212° |
| 2026-05-04 23:29 | 37.04618 | -88.29725 | 33086 ft | 404 kts | 212° |
| 2026-05-04 23:29 | 37.02100 | -88.31231 | 32837 ft | 399 kts | 212° |
| 2026-05-04 23:29 | 36.99597 | -88.32734 | 32589 ft | 397 kts | 212° |
| 2026-05-04 23:30 | 36.97112 | -88.34224 | 32342 ft | 396 kts | 212° |
| 2026-05-04 23:30 | 36.94630 | -88.35709 | 32095 ft | 394 kts | 212° |
| 2026-05-04 23:30 | 36.92154 | -88.37184 | 31848 ft | 393 kts | 212° |
| 2026-05-04 23:30 | 36.89689 | -88.38652 | 31601 ft | 392 kts | 212° |
| 2026-05-04 23:31 | 36.87237 | -88.40112 | 31353 ft | 390 kts | 212° |
| 2026-05-04 23:31 | 36.84788 | -88.41569 | 31106 ft | 388 kts | 212° |
| 2026-05-04 23:31 | 36.82357 | -88.43017 | 30857 ft | 387 kts | 212° |
| 2026-05-04 23:31 | 36.79936 | -88.44457 | 30610 ft | 385 kts | 212° |
| 2026-05-04 23:32 | 36.77515 | -88.45896 | 30363 ft | 384 kts | 212° |
| 2026-05-04 23:32 | 36.75109 | -88.47324 | 30116 ft | 383 kts | 212° |
| 2026-05-04 23:32 | 36.72706 | -88.48749 | 29868 ft | 381 kts | 212° |
| 2026-05-04 23:32 | 36.70309 | -88.50170 | 29621 ft | 380 kts | 212° |
| 2026-05-04 23:33 | 36.67930 | -88.51580 | 29371 ft | 377 kts | 212° |
| 2026-05-04 23:33 | 36.65562 | -88.52984 | 29124 ft | 376 kts | 212° |
| 2026-05-04 23:33 | 36.63224 | -88.54366 | 28879 ft | 375 kts | 212° |
| 2026-05-04 23:33 | 36.60841 | -88.55774 | 28628 ft | 373 kts | 212° |
| 2026-05-04 23:34 | 36.58527 | -88.57141 | 28383 ft | 372 kts | 212° |
| 2026-05-04 23:34 | 36.56188 | -88.58522 | 28135 ft | 371 kts | 211° |
| 2026-05-04 23:34 | 36.53863 | -88.59894 | 27888 ft | 369 kts | 211° |
| 2026-05-04 23:34 | 36.51546 | -88.61260 | 27639 ft | 367 kts | 211° |
| 2026-05-04 23:35 | 36.49234 | -88.62623 | 27391 ft | 366 kts | 211° |
| 2026-05-04 23:35 | 36.46940 | -88.63975 | 27143 ft | 364 kts | 211° |
| 2026-05-04 23:35 | 36.44654 | -88.65320 | 26896 ft | 363 kts | 211° |
| 2026-05-04 23:35 | 36.42373 | -88.66661 | 26647 ft | 361 kts | 211° |
| 2026-05-04 23:36 | 36.40104 | -88.67994 | 26399 ft | 359 kts | 211° |
| 2026-05-04 23:36 | 36.37848 | -88.69320 | 26152 ft | 358 kts | 211° |
| 2026-05-04 23:36 | 36.35627 | -88.70623 | 25906 ft | 356 kts | 211° |
| 2026-05-04 23:36 | 36.33387 | -88.71937 | 25658 ft | 355 kts | 211° |
| 2026-05-04 23:37 | 36.31155 | -88.73246 | 25410 ft | 353 kts | 211° |
| 2026-05-04 23:37 | 36.28934 | -88.74547 | 25162 ft | 352 kts | 211° |
| 2026-05-04 23:37 | 36.26726 | -88.75841 | 24914 ft | 350 kts | 211° |
| 2026-05-04 23:37 | 36.24529 | -88.77128 | 24666 ft | 349 kts | 211° |
| 2026-05-04 23:38 | 36.22334 | -88.78412 | 24418 ft | 348 kts | 211° |
| 2026-05-04 23:38 | 36.20151 | -88.79686 | 24170 ft | 346 kts | 211° |
| 2026-05-04 23:38 | 36.17978 | -88.80954 | 23922 ft | 344 kts | 211° |
| 2026-05-04 23:38 | 36.15813 | -88.82217 | 23673 ft | 343 kts | 211° |
| 2026-05-04 23:39 | 36.13660 | -88.83474 | 23425 ft | 341 kts | 211° |
| 2026-05-04 23:39 | 36.11516 | -88.84724 | 23156 ft | 340 kts | 211° |
| 2026-05-04 23:39 | 36.09381 | -88.85969 | 22796 ft | 339 kts | 211° |
| 2026-05-04 23:39 | 36.07252 | -88.87207 | 22423 ft | 337 kts | 211° |
| 2026-05-04 23:40 | 36.05128 | -88.88442 | 22027 ft | 337 kts | 210° |
| 2026-05-04 23:40 | 36.03006 | -88.89675 | 21615 ft | 337 kts | 210° |
| 2026-05-04 23:40 | 36.00884 | -88.90911 | 21202 ft | 337 kts | 210° |
| 2026-05-04 23:40 | 35.98765 | -88.92144 | 20785 ft | 337 kts | 210° |
| 2026-05-04 23:41 | 35.96644 | -88.93376 | 20391 ft | 336 kts | 210° |
| 2026-05-04 23:41 | 35.94557 | -88.94586 | 20001 ft | 335 kts | 209° |
| 2026-05-04 23:41 | 35.92441 | -88.95812 | 19570 ft | 336 kts | 209° |
| 2026-05-04 23:41 | 35.90322 | -88.97039 | 19137 ft | 336 kts | 209° |
| 2026-05-04 23:42 | 35.88202 | -88.98266 | 18714 ft | 336 kts | 209° |
| 2026-05-04 23:42 | 35.86099 | -88.99482 | 18313 ft | 333 kts | 208° |
| 2026-05-04 23:42 | 35.84010 | -89.00691 | 17916 ft | 330 kts | 208° |
| 2026-05-04 23:42 | 35.81943 | -89.01886 | 17558 ft | 325 kts | 208° |
| 2026-05-04 23:43 | 35.79903 | -89.03065 | 17169 ft | 323 kts | 208° |
| 2026-05-04 23:43 | 35.77880 | -89.04233 | 16760 ft | 320 kts | 208° |
| 2026-05-04 23:43 | 35.75869 | -89.05394 | 16374 ft | 318 kts | 208° |
| 2026-05-04 23:43 | 35.73885 | -89.06558 | 15987 ft | 314 kts | 211° |
| 2026-05-04 23:44 | 35.72131 | -89.08098 | 15605 ft | 308 kts | 225° |
| 2026-05-04 23:44 | 35.70633 | -89.09953 | 15239 ft | 304 kts | 229° |
| 2026-05-04 23:44 | 35.69213 | -89.11868 | 14840 ft | 302 kts | 229° |
| 2026-05-04 23:44 | 35.67806 | -89.13782 | 14454 ft | 300 kts | 229° |
| 2026-05-04 23:45 | 35.66391 | -89.15664 | 14078 ft | 298 kts | 228° |
| 2026-05-04 23:45 | 35.64972 | -89.17507 | 13701 ft | 296 kts | 227° |
| 2026-05-04 23:45 | 35.63551 | -89.19329 | 13320 ft | 294 kts | 227° |
| 2026-05-04 23:45 | 35.62140 | -89.21139 | 13027 ft | 290 kts | 227° |
| 2026-05-04 23:46 | 35.60771 | -89.22897 | 12922 ft | 279 kts | 227° |
| 2026-05-04 23:46 | 35.59500 | -89.24651 | 12809 ft | 269 kts | 231° |
| 2026-05-04 23:46 | 35.58348 | -89.26368 | 12702 ft | 259 kts | 232° |
| 2026-05-04 23:46 | 35.57222 | -89.28083 | 12399 ft | 257 kts | 232° |
| 2026-05-04 23:47 | 35.56084 | -89.29807 | 12047 ft | 258 kts | 231° |
| 2026-05-04 23:47 | 35.54952 | -89.31498 | 11729 ft | 257 kts | 231° |
| 2026-05-04 23:47 | 35.53818 | -89.33181 | 11407 ft | 255 kts | 231° |
| 2026-05-04 23:47 | 35.52689 | -89.34861 | 11086 ft | 254 kts | 231° |
| 2026-05-04 23:48 | 35.51569 | -89.36532 | 10783 ft | 252 kts | 231° |
| 2026-05-04 23:48 | 35.50455 | -89.38194 | 10468 ft | 251 kts | 230° |
| 2026-05-04 23:48 | 35.49345 | -89.39840 | 10148 ft | 250 kts | 230° |
| 2026-05-04 23:48 | 35.48276 | -89.41506 | 9877 ft | 249 kts | 238° |
| 2026-05-04 23:49 | 35.47509 | -89.43414 | 9428 ft | 255 kts | 245° |
| 2026-05-04 23:49 | 35.46842 | -89.45464 | 8906 ft | 261 kts | 247° |
| 2026-05-04 23:49 | 35.46204 | -89.47558 | 8518 ft | 262 kts | 248° |
| 2026-05-04 23:49 | 35.45578 | -89.49649 | 8177 ft | 260 kts | 248° |
| 2026-05-04 23:50 | 35.44958 | -89.51736 | 7832 ft | 259 kts | 248° |
| 2026-05-04 23:50 | 35.44345 | -89.53808 | 7494 ft | 258 kts | 248° |
| 2026-05-04 23:50 | 35.43736 | -89.55870 | 7172 ft | 256 kts | 248° |
| 2026-05-04 23:50 | 35.43133 | -89.57917 | 6832 ft | 255 kts | 248° |
| 2026-05-04 23:51 | 35.42532 | -89.59959 | 6497 ft | 253 kts | 248° |
| 2026-05-04 23:51 | 35.41944 | -89.61962 | 6166 ft | 252 kts | 248° |
| 2026-05-04 23:51 | 35.41351 | -89.63981 | 5836 ft | 251 kts | 248° |
| 2026-05-04 23:51 | 35.40762 | -89.65992 | 5491 ft | 250 kts | 248° |
| 2026-05-04 23:52 | 35.40177 | -89.67995 | 5159 ft | 249 kts | 248° |
| 2026-05-04 23:52 | 35.39596 | -89.69989 | 4995 ft | 249 kts | 248° |
| 2026-05-04 23:52 | 35.39014 | -89.71994 | 4988 ft | 249 kts | 248° |
| 2026-05-04 23:52 | 35.38431 | -89.74003 | 4992 ft | 250 kts | 248° |
| 2026-05-04 23:53 | 35.37849 | -89.76009 | 4997 ft | 249 kts | 248° |
| 2026-05-04 23:53 | 35.37273 | -89.77999 | 4877 ft | 246 kts | 248° |
| 2026-05-04 23:53 | 35.36707 | -89.79963 | 4548 ft | 245 kts | 248° |
| 2026-05-04 23:53 | 35.36138 | -89.81937 | 4186 ft | 245 kts | 248° |
| 2026-05-04 23:54 | 35.35575 | -89.83900 | 3895 ft | 242 kts | 248° |
| 2026-05-04 23:54 | 35.35031 | -89.85808 | 3793 ft | 232 kts | 248° |
| 2026-05-04 23:54 | 35.34500 | -89.87618 | 3702 ft | 220 kts | 243° |
| 2026-05-04 23:54 | 35.33602 | -89.89030 | 3601 ft | 206 kts | 217° |
| 2026-05-04 23:55 | 35.32408 | -89.89918 | 3541 ft | 196 kts | 209° |
| 2026-05-04 23:55 | 35.31243 | -89.90647 | 3470 ft | 186 kts | 208° |
| 2026-05-04 23:55 | 35.28980 | -89.92008 | 3048 ft | 179 kts | 208° |
| 2026-05-04 23:56 | 35.27858 | -89.92681 | 2825 ft | 179 kts | 208° |
| 2026-05-04 23:56 | 35.26733 | -89.93366 | 2301 ft | 188 kts | 207° |
| 2026-05-04 23:56 | 35.25511 | -89.94138 | 2183 ft | 195 kts | 208° |
| 2026-05-04 23:56 | 35.24336 | -89.94865 | 2250 ft | 184 kts | 207° |
| 2026-05-04 23:57 | 35.23173 | -89.95380 | 2320 ft | 171 kts | 196° |
| 2026-05-04 23:57 | 35.22024 | -89.95621 | 2202 ft | 163 kts | 192° |
| 2026-05-04 23:57 | 35.20915 | -89.95833 | 2081 ft | 160 kts | 193° |
| 2026-05-04 23:57 | 35.19835 | -89.96065 | 1992 ft | 159 kts | 193° |
| 2026-05-04 23:58 | 35.18733 | -89.96311 | 1988 ft | 159 kts | 193° |
| 2026-05-04 23:58 | 35.17655 | -89.96548 | 2000 ft | 160 kts | 193° |
| 2026-05-04 23:58 | 35.16563 | -89.96784 | 1998 ft | 160 kts | 193° |
| 2026-05-04 23:58 | 35.15460 | -89.97023 | 1998 ft | 160 kts | 193° |
| 2026-05-04 23:59 | 35.14362 | -89.97262 | 1997 ft | 160 kts | 193° |
| 2026-05-04 23:59 | 35.13256 | -89.97463 | 1955 ft | 162 kts | 187° |
| 2026-05-04 23:59 | 35.12135 | -89.97458 | 1768 ft | 160 kts | 180° |
| 2026-05-04 23:59 | 35.11051 | -89.97419 | 1564 ft | 150 kts | 181° |
| 2026-05-05 00:00 | 35.10040 | -89.97403 | 1375 ft | 140 kts | 181° |
| 2026-05-05 00:00 | 35.09723 | -89.97397 | 1323 ft | 140 kts | 182° |
| 2026-05-05 00:00 | 35.08115 | -89.97367 | 1079 ft | 139 kts | 182° |
| 2026-05-05 00:00 | 35.07160 | -89.97343 | 848 ft | 137 kts | 182° |
| 2026-05-05 00:01 | 35.06211 | -89.97324 | 648 ft | 136 kts | 181° |
| 2026-05-05 00:01 | 35.05268 | -89.97302 | 469 ft | 136 kts | 181° |
| 2026-05-05 00:01 | 35.04353 | -89.97287 | 357 ft | 121 kts | 181° |
| 2026-05-05 00:01 | 35.03660 | -89.97274 | 356 ft | 74 kts | 179° |
| 2026-05-05 00:02 | 35.03318 | -89.97289 | 356 ft | 25 kts | 197° |
| 2026-05-05 00:02 | 35.03227 | -89.97342 | 356 ft | 16 kts | 217° |
| 2026-05-05 00:02 | 35.03163 | -89.97439 | 356 ft | 6 kts | 253° |
| 2026-05-05 00:02 | 35.03160 | -89.97470 | 356 ft | 5 kts | 266° |
| 2026-05-05 00:03 | 35.03158 | -89.97532 | 356 ft | 9 kts | 270° |
| 2026-05-05 00:03 | 35.03159 | -89.97626 | 356 ft | 13 kts | 270° |
| 2026-05-05 00:03 | 35.03160 | -89.97742 | 356 ft | 13 kts | 270° |
| 2026-05-05 00:03 | 35.03163 | -89.97794 | 356 ft | 2 kts | 286° |
| 2026-05-05 00:04 | 35.03177 | -89.97810 | 356 ft | 5 kts | 334° |
| 2026-05-05 00:04 | 35.03222 | -89.97820 | 356 ft | 9 kts | 356° |
| 2026-05-05 00:04 | 35.03296 | -89.97823 | 356 ft | 13 kts | 358° |
| 2026-05-05 00:04 | 35.03399 | -89.97825 | 356 ft | 17 kts | 359° |
| 2026-05-05 00:05 | 35.03530 | -89.97827 | 356 ft | 21 kts | 359° |
| 2026-05-05 00:05 | 35.03689 | -89.97831 | 356 ft | 22 kts | 359° |
| 2026-05-05 00:05 | 35.03792 | -89.97832 | 356 ft | 15 kts | 359° |
| 2026-05-05 00:05 | 35.03908 | -89.97834 | 356 ft | 12 kts | 359° |
| 2026-05-05 00:06 | 35.04007 | -89.97835 | 356 ft | 13 kts | 359° |
| 2026-05-05 00:06 | 35.04093 | -89.97836 | 356 ft | 8 kts | 1° |
| 2026-05-05 00:06 | 35.04152 | -89.97834 | 356 ft | 7 kts | 1° |
| 2026-05-05 00:06 | 35.04186 | -89.97854 | 356 ft | 4 kts | 293° |
| 2026-05-05 00:07 | 35.04192 | -89.97903 | 356 ft | 8 kts | 270° |
| 2026-05-05 00:07 | 35.04209 | -89.97981 | 356 ft | 12 kts | 309° |
| 2026-05-05 00:07 | 35.04248 | -89.98030 | 356 ft | 6 kts | 315° |
| 2026-05-05 00:07 | 35.04271 | -89.98055 | 356 ft | 3 kts | 323° |
| 2026-05-05 00:08 | 35.04283 | -89.98079 | 356 ft | 5 kts | 284° |
| 2026-05-05 00:08 | 35.04284 | -89.98097 | 356 ft | 1 kts | 270° |
| 2026-05-05 00:08 | 35.04285 | -89.98107 | 356 ft | 2 kts | 271° |
| 2026-05-05 00:08 | 35.04285 | -89.98114 | 356 ft | 1 kts | 269° |
| 2026-05-05 00:09 | 35.04285 | -89.98115 | 356 ft | 0 kts | 269° |